createdAt,value
2023-04-07T00:00:00.551Z,2.2
2023-04-07T00:05:00.830Z,3.6
2023-04-07T00:10:00.589Z,3.6
2023-04-07T00:15:00.530Z,4.0
2023-04-07T00:20:00.586Z,2.2
2023-04-07T00:25:00.516Z,4.7
2023-04-07T00:30:00.516Z,3.2
2023-04-07T00:35:02.606Z,3.6
2023-04-07T00:40:00.521Z,3.6
2023-04-07T00:45:00.511Z,2.9
2023-04-07T00:50:00.558Z,1.4
2023-04-07T00:55:00.524Z,2.5
2023-04-07T01:00:00.483Z,2.2
2023-04-07T01:05:00.782Z,0.0
2023-04-07T01:10:00.543Z,0.0
2023-04-07T01:15:00.512Z,2.2
2023-04-07T01:20:00.533Z,0.0
2023-04-07T01:25:00.518Z,0.0
2023-04-07T01:30:00.493Z,0.0
2023-04-07T01:35:00.542Z,0.0
2023-04-07T01:40:00.508Z,2.2
2023-04-07T01:45:00.678Z,2.5
2023-04-07T01:50:02.506Z,2.5
2023-04-07T01:55:00.484Z,2.2
2023-04-07T02:00:00.517Z,4.0
2023-04-07T02:05:00.480Z,3.2
2023-04-07T02:10:00.526Z,1.8
2023-04-07T02:15:00.618Z,2.9
2023-04-07T02:20:00.516Z,2.2
2023-04-07T02:25:00.534Z,2.2
2023-04-07T02:30:00.501Z,3.6
2023-04-07T02:35:00.542Z,2.5
2023-04-07T02:40:00.494Z,4.3
2023-04-07T02:50:00.511Z,2.5
2023-04-07T02:55:00.556Z,3.6
2023-04-07T03:00:00.500Z,6.5
2023-04-07T03:05:00.511Z,5.0
2023-04-07T03:10:00.497Z,6.8
2023-04-07T03:15:00.515Z,4.7
2023-04-07T03:20:00.483Z,6.1
2023-04-07T03:25:00.521Z,3.2
2023-04-07T03:30:00.525Z,6.1
2023-04-07T03:35:00.485Z,6.1
2023-04-07T03:40:00.526Z,5.0
2023-04-07T03:45:00.469Z,5.4
2023-04-07T03:50:00.517Z,4.3
2023-04-07T03:55:00.516Z,3.2
2023-04-07T04:00:00.510Z,6.5
2023-04-07T04:05:00.509Z,5.0
2023-04-07T04:10:00.488Z,6.5
2023-04-07T04:15:00.712Z,6.8
2023-04-07T04:20:00.538Z,5.4
2023-04-07T04:25:00.544Z,5.0
2023-04-07T04:30:00.749Z,6.1
2023-04-07T04:35:00.511Z,6.1
2023-04-07T04:40:00.503Z,4.7
2023-04-07T04:45:00.677Z,4.3
2023-04-07T04:50:00.564Z,4.0
2023-04-07T04:55:00.477Z,4.0
2023-04-07T05:00:00.700Z,8.3
2023-04-07T05:05:00.898Z,4.0
2023-04-07T05:10:00.529Z,6.1
2023-04-07T05:15:00.697Z,6.5
2023-04-07T05:20:00.494Z,5.8
2023-04-07T05:25:00.673Z,6.5
2023-04-07T05:30:00.701Z,6.1
2023-04-07T05:35:00.480Z,5.4
2023-04-07T05:40:00.512Z,5.8
2023-04-07T05:45:00.702Z,4.7
2023-04-07T05:50:00.568Z,7.9
2023-04-07T05:55:00.519Z,8.3
2023-04-07T06:00:00.607Z,8.3
2023-04-07T06:05:00.656Z,6.1
2023-04-07T06:10:00.498Z,7.2
2023-04-07T06:15:00.704Z,8.3
2023-04-07T06:20:00.588Z,8.3
2023-04-07T06:25:00.570Z,8.3
2023-04-07T06:30:00.519Z,7.9
2023-04-07T06:35:00.571Z,6.5
2023-04-07T06:40:00.577Z,4.7
2023-04-07T06:45:00.508Z,6.1
2023-04-07T06:50:00.506Z,10.4
2023-04-07T06:55:00.604Z,8.6
2023-04-07T07:00:00.636Z,8.3
2023-04-07T07:05:00.553Z,14.4
2023-04-07T07:10:00.609Z,9.4
2023-04-07T07:15:00.537Z,14.8
2023-04-07T07:20:00.564Z,12.6
2023-04-07T07:25:00.725Z,14.4
2023-04-07T07:30:00.638Z,11.9
2023-04-07T07:35:00.500Z,10.8
2023-04-07T07:40:00.631Z,7.2
2023-04-07T07:45:00.545Z,9.4
2023-04-07T07:50:00.568Z,8.3
2023-04-07T07:55:00.586Z,9.0
2023-04-07T08:00:00.545Z,8.6
2023-04-07T08:05:00.974Z,10.4
2023-04-07T08:10:00.572Z,8.3
2023-04-07T08:15:00.601Z,13.7
2023-04-07T08:20:00.567Z,10.1
2023-04-07T08:25:00.664Z,15.5
2023-04-07T08:30:00.676Z,8.3
2023-04-07T08:35:00.529Z,12.2
2023-04-07T08:40:00.648Z,16.2
2023-04-07T08:45:01.392Z,11.2
2023-04-07T08:50:00.712Z,8.3
2023-04-07T08:55:00.499Z,12.6
2023-04-07T09:00:00.547Z,13.0
2023-04-07T09:05:00.536Z,15.1
2023-04-07T09:10:00.557Z,14.4
2023-04-07T09:15:00.585Z,11.2
2023-04-07T09:20:00.572Z,14.0
2023-04-07T09:25:00.677Z,14.8
2023-04-07T09:30:00.579Z,9.7
2023-04-07T09:35:00.543Z,13.3
2023-04-07T09:40:00.600Z,10.4
2023-04-07T09:45:00.538Z,11.9
2023-04-07T09:50:00.531Z,14.8
2023-04-07T09:55:00.490Z,15.1
2023-04-07T10:00:00.519Z,9.7
2023-04-07T10:05:00.530Z,13.7
2023-04-07T10:10:00.636Z,14.0
2023-04-07T10:15:00.507Z,10.8
2023-04-07T10:20:00.673Z,16.2
2023-04-07T10:25:00.598Z,14.4
2023-04-07T10:30:00.537Z,9.7
2023-04-07T10:35:00.526Z,15.5
2023-04-07T10:40:00.570Z,13.0
2023-04-07T10:45:00.523Z,16.9
2023-04-07T10:50:00.533Z,10.8
2023-04-07T10:55:00.642Z,13.3
2023-04-07T11:00:00.608Z,9.7
2023-04-07T11:05:00.545Z,14.8
2023-04-07T11:10:00.499Z,14.4
2023-04-07T11:15:00.510Z,11.2
2023-04-07T11:20:00.519Z,10.8
2023-04-07T11:25:00.674Z,10.8
2023-04-07T11:40:00.658Z,10.4
2023-04-07T11:45:00.432Z,15.1
2023-04-07T11:50:00.483Z,15.1
2023-04-07T11:55:00.489Z,6.1
2023-04-07T12:00:00.526Z,13.0
2023-04-07T12:05:00.627Z,15.5
2023-04-07T12:10:00.482Z,14.4
2023-04-07T12:15:00.523Z,11.9
2023-04-07T12:20:00.529Z,10.8
2023-04-07T12:25:00.534Z,9.0
2023-04-07T12:30:00.462Z,12.6
2023-04-07T12:35:00.460Z,13.7
2023-04-07T12:40:00.867Z,13.0
2023-04-07T12:45:00.478Z,9.4
2023-04-07T12:50:00.577Z,15.5
2023-04-07T12:55:00.440Z,15.8
2023-04-07T13:00:00.444Z,11.5
2023-04-07T13:05:00.476Z,13.0
2023-04-07T13:10:00.602Z,12.2
2023-04-07T13:15:01.040Z,7.2
2023-04-07T13:20:00.473Z,10.1
2023-04-07T13:25:02.372Z,15.5
2023-04-07T13:30:00.671Z,8.6
2023-04-07T13:35:00.536Z,16.9
2023-04-07T13:40:00.533Z,11.5
2023-04-07T13:45:00.552Z,7.6
2023-04-07T13:50:00.470Z,14.8
2023-04-07T13:55:00.386Z,7.2
2023-04-07T14:00:00.564Z,6.5
2023-04-07T14:05:00.535Z,6.5
2023-04-07T14:10:00.437Z,14.0
2023-04-07T14:15:00.584Z,16.9
2023-04-07T14:20:00.556Z,9.0
2023-04-07T14:25:00.510Z,11.2
2023-04-07T14:30:00.534Z,8.3
2023-04-07T14:35:00.421Z,9.0
2023-04-07T14:40:03.640Z,12.6
2023-04-07T14:45:00.431Z,13.3
2023-04-07T14:50:00.472Z,9.4
2023-04-07T14:55:00.773Z,9.0
2023-04-07T15:00:02.137Z,10.8
2023-04-07T15:05:04.254Z,13.7
2023-04-07T15:10:00.464Z,7.2
2023-04-07T15:15:04.746Z,8.3
2023-04-07T15:20:00.546Z,7.6
2023-04-07T15:25:00.481Z,10.8
2023-04-07T15:30:00.699Z,9.0
2023-04-07T15:35:00.490Z,9.4
2023-04-07T15:40:00.560Z,7.6
2023-04-07T15:45:00.478Z,11.2
2023-04-07T15:50:00.557Z,15.1
2023-04-07T15:55:00.560Z,7.9
2023-04-07T16:00:00.538Z,9.0
2023-04-07T16:05:00.474Z,5.4
2023-04-07T16:10:00.543Z,4.3
2023-04-07T16:15:00.598Z,10.8
2023-04-07T16:20:00.538Z,10.8
2023-04-07T16:25:00.528Z,6.5
2023-04-07T16:30:00.553Z,7.2
2023-04-07T16:35:00.439Z,10.1
2023-04-07T16:40:00.537Z,5.8
2023-04-07T16:45:00.755Z,8.6
2023-04-07T16:50:00.616Z,8.3
2023-04-07T16:55:00.600Z,4.7
2023-04-07T17:00:00.830Z,6.1
2023-04-07T17:05:00.536Z,4.7
2023-04-07T17:10:00.658Z,6.5
2023-04-07T17:15:00.603Z,6.1
2023-04-07T17:20:00.759Z,4.3
2023-04-07T17:25:00.669Z,7.2
2023-04-07T17:30:00.699Z,6.8
2023-04-07T17:35:00.460Z,5.8
2023-04-07T17:40:00.417Z,4.7
2023-04-07T17:45:00.414Z,4.7
2023-04-07T17:50:00.437Z,6.5
2023-04-07T17:55:00.436Z,11.9
2023-04-07T18:00:00.436Z,9.7
2023-04-07T18:05:00.777Z,5.0
2023-04-07T18:10:00.438Z,7.9
2023-04-07T18:15:00.412Z,8.6
2023-04-07T18:20:00.437Z,7.9
2023-04-07T18:25:00.399Z,7.9
2023-04-07T18:30:00.472Z,4.3
2023-04-07T18:35:00.425Z,4.7
2023-04-07T18:40:00.688Z,9.4
2023-04-07T18:45:00.475Z,8.6
2023-04-07T18:50:00.542Z,5.8
2023-04-07T18:55:00.495Z,5.8
2023-04-07T19:00:00.533Z,14.8
2023-04-07T19:05:00.391Z,9.7
2023-04-07T19:10:00.411Z,7.2
2023-04-07T19:15:00.465Z,12.2
2023-04-07T19:20:00.532Z,6.8
2023-04-07T19:25:00.438Z,10.1
2023-04-07T19:30:00.625Z,6.8
2023-04-07T19:35:00.409Z,4.7
2023-04-07T19:40:03.893Z,7.6
2023-04-07T19:45:00.411Z,8.3
2023-04-07T19:50:00.421Z,6.5
2023-04-07T19:55:00.425Z,8.3
2023-04-07T20:00:00.419Z,5.0
2023-04-07T20:05:00.393Z,9.4
2023-04-07T20:10:00.436Z,8.3
2023-04-07T20:15:00.425Z,2.9
2023-04-07T20:20:00.391Z,7.6
2023-04-07T20:25:00.521Z,6.1
2023-04-07T20:30:00.405Z,8.6
2023-04-07T20:35:00.519Z,6.1
2023-04-07T20:40:00.417Z,5.4
2023-04-07T20:45:00.429Z,8.3
2023-04-07T20:50:00.432Z,2.9
2023-04-07T20:55:00.459Z,7.6
2023-04-07T21:00:00.398Z,2.9
2023-04-07T21:05:00.380Z,5.4
2023-04-07T21:10:00.418Z,3.6
2023-04-07T21:15:00.405Z,8.6
2023-04-07T21:20:00.473Z,5.0
2023-04-07T21:25:00.440Z,6.5
2023-04-07T21:30:00.430Z,6.8
2023-04-07T21:35:00.407Z,6.5
2023-04-07T21:40:00.971Z,12.6
2023-04-07T21:45:00.453Z,7.6
2023-04-07T21:50:00.436Z,7.9
2023-04-07T21:55:00.421Z,12.6
2023-04-07T22:00:00.599Z,9.7
2023-04-07T22:05:00.405Z,8.3
2023-04-07T22:10:00.423Z,5.4
2023-04-07T22:15:00.389Z,7.2
2023-04-07T22:20:00.398Z,11.2
2023-04-07T22:25:00.418Z,5.4
2023-04-07T22:30:00.602Z,7.6
2023-04-07T22:35:00.383Z,11.9
2023-04-07T22:40:00.482Z,9.4
2023-04-07T22:45:00.371Z,7.9
2023-04-07T22:50:00.403Z,7.9
2023-04-07T22:55:00.431Z,6.8
2023-04-07T23:00:00.402Z,8.3
2023-04-07T23:05:00.438Z,11.2
2023-04-07T23:10:00.415Z,9.4
2023-04-07T23:15:00.440Z,9.7
2023-04-07T23:20:00.415Z,8.3
2023-04-07T23:25:00.462Z,6.1
2023-04-07T23:30:00.431Z,9.0
2023-04-07T23:35:00.361Z,6.1
2023-04-07T23:40:00.403Z,3.6
2023-04-07T23:45:00.388Z,7.6
2023-04-07T23:50:00.544Z,4.7
2023-04-07T23:55:00.426Z,4.0
